Time,TemperatureF,DewpointF,PressureIn,WindDirection,WindDirectionDegrees,WindSpeedMPH,WindSpeedGustMPH,Humidity,HourlyPrecipIn,Conditions,Clouds,dailyrainin,SolarRadiationWatts/m^2,SoftwareType,DateUTC
2013-02-17 00:02:00,23.0,8.0,-100.00,WNW,301,2.0,5.0,53,0.00,,,0.00,0.000000,,2013-02-17 05:02:00,
2013-02-17 00:33:00,23.0,10.0,-100.00,WNW,285,2.0,5.0,56,0.00,,,0.00,0.000000,,2013-02-17 05:33:00,
2013-02-17 00:42:00,23.0,10.0,-100.00,WNW,285,2.0,5.0,56,0.00,,,0.00,0.000000,,2013-02-17 05:42:00,
2013-02-17 00:52:00,23.0,10.0,-100.00,WNW,285,2.0,5.0,56,0.00,,,0.00,0.000000,,2013-02-17 05:52:00,
2013-02-17 01:02:00,23.0,10.0,-100.00,WNW,285,2.0,5.0,56,0.00,,,0.00,0.000000,,2013-02-17 06:02:00,
2013-02-17 01:42:00,23.0,10.0,-100.00,NW,322,2.0,8.0,57,0.00,,,0.00,0.000000,,2013-02-17 06:42:00,
2013-02-17 01:52:00,23.0,10.0,-100.00,NW,322,2.0,8.0,57,0.00,,,0.00,0.000000,,2013-02-17 06:52:00,
2013-02-17 02:01:00,23.0,10.0,-100.00,NW,322,2.0,8.0,57,0.00,,,0.00,0.000000,,2013-02-17 07:01:00,
2013-02-17 02:42:00,22.0,10.0,-100.00,NW,325,1.0,8.0,58,0.00,,,0.00,0.000000,,2013-02-17 07:42:00,
2013-02-17 02:52:00,22.0,10.0,-100.00,NW,325,1.0,8.0,58,0.00,,,0.00,0.000000,,2013-02-17 07:52:00,
2013-02-17 03:01:00,22.0,10.0,-100.00,NW,325,1.0,8.0,58,0.00,,,0.00,0.000000,,2013-02-17 08:01:00,
2013-02-17 03:42:00,21.0,10.0,-100.00,North,10,1.0,5.0,62,0.00,,,0.00,0.000000,,2013-02-17 08:42:00,
2013-02-17 03:52:00,21.0,10.0,-100.00,North,10,1.0,5.0,62,0.00,,,0.00,0.000000,,2013-02-17 08:52:00,
2013-02-17 04:02:00,21.0,10.0,-100.00,North,10,1.0,5.0,62,0.00,,,0.00,0.000000,,2013-02-17 09:02:00,
2013-02-17 04:42:00,19.0,10.0,-100.00,North,1,0.0,6.0,68,0.00,,,0.00,0.000000,,2013-02-17 09:42:00,
2013-02-17 04:52:00,19.0,10.0,-100.00,North,1,0.0,6.0,68,0.00,,,0.00,0.000000,,2013-02-17 09:52:00,
2013-02-17 05:01:00,19.0,10.0,-100.00,North,1,0.0,6.0,68,0.00,,,0.00,0.000000,,2013-02-17 10:01:00,
2013-02-17 05:42:00,17.0,10.0,-100.00,NNE,14,1.0,3.0,75,0.00,,,-99.99,0.000000,,2013-02-17 10:42:00,
2013-02-17 05:52:00,17.0,10.0,-100.00,NNE,14,1.0,3.0,75,0.00,,,-99.99,0.000000,,2013-02-17 10:52:00,
2013-02-17 06:01:00,17.0,10.0,-100.00,NNE,14,1.0,3.0,75,0.00,,,-99.99,0.000000,,2013-02-17 11:01:00,
2013-02-17 06:42:00,16.0,10.0,-100.00,NNE,29,1.0,3.0,78,0.00,,,0.00,0.000000,,2013-02-17 11:42:00,
2013-02-17 06:52:00,16.0,10.0,-100.00,NNE,29,1.0,3.0,78,0.00,,,0.00,0.000000,,2013-02-17 11:52:00,
2013-02-17 07:03:00,16.0,10.0,-100.00,NNE,29,1.0,3.0,78,0.00,,,0.00,0.000000,,2013-02-17 12:03:00,
2013-02-17 07:32:00,16.0,10.0,-100.00,NE,48,1.0,6.0,76,0.00,,,0.00,0.000000,,2013-02-17 12:32:00,
2013-02-17 07:42:00,16.0,10.0,-100.00,NE,48,1.0,6.0,76,0.00,,,0.00,0.000000,,2013-02-17 12:42:00,
2013-02-17 07:52:00,16.0,10.0,-100.00,NE,48,1.0,6.0,76,0.00,,,0.00,0.000000,,2013-02-17 12:52:00,
2013-02-17 08:02:00,16.0,10.0,-100.00,NE,48,1.0,6.0,76,0.00,,,0.00,0.000000,,2013-02-17 13:02:00,
2013-02-17 09:42:00,21.0,9.0,-100.00,NE,36,3.0,5.0,59,-99.99,,,0.00,181.000000,,2013-02-17 14:42:00,
2013-02-17 09:53:00,21.0,9.0,-100.00,NE,36,3.0,5.0,59,-99.99,,,0.00,181.000000,,2013-02-17 14:53:00,
2013-02-17 10:02:00,21.0,9.0,-100.00,NE,36,3.0,5.0,59,-99.99,,,0.00,181.000000,,2013-02-17 15:02:00,
2013-02-17 10:42:00,23.0,6.0,-100.00,North,350,2.0,6.0,47,0.00,,,0.00,364.000000,,2013-02-17 15:42:00,
2013-02-17 10:52:00,23.0,6.0,-100.00,North,350,2.0,6.0,47,0.00,,,0.00,364.000000,,2013-02-17 15:52:00,
2013-02-17 11:01:00,23.0,6.0,-100.00,North,350,2.0,6.0,47,0.00,,,0.00,364.000000,,2013-02-17 16:01:00,
2013-02-17 11:32:00,27.0,5.0,-100.00,WSW,250,1.0,6.0,39,0.00,,,0.00,513.000000,,2013-02-17 16:32:00,
2013-02-17 11:42:00,27.0,5.0,-100.00,WSW,250,1.0,6.0,39,0.00,,,0.00,513.000000,,2013-02-17 16:42:00,
2013-02-17 11:52:00,27.0,5.0,-100.00,WSW,250,1.0,6.0,39,0.00,,,0.00,513.000000,,2013-02-17 16:52:00,
2013-02-17 12:32:00,30.0,2.0,-100.00,WSW,247,2.0,6.0,29,0.00,,,0.00,616.000000,,2013-02-17 17:32:00,
2013-02-17 13:42:00,35.0,4.0,-100.00,NW,308,3.0,10.0,26,0.00,,,0.00,660.000000,,2013-02-17 18:42:00,
2013-02-17 13:52:00,35.0,4.0,-100.00,NW,308,3.0,10.0,26,0.00,,,0.00,660.000000,,2013-02-17 18:52:00,
2013-02-17 14:42:00,35.0,5.0,-100.00,NNW,342,3.0,10.0,28,0.00,,,0.00,643.000000,,2013-02-17 19:42:00,
2013-02-17 14:52:00,35.0,5.0,-100.00,NNW,342,3.0,10.0,28,0.00,,,0.00,643.000000,,2013-02-17 19:52:00,
2013-02-17 15:42:00,37.0,7.0,-100.00,NW,310,4.0,12.0,28,0.00,,,0.00,564.000000,,2013-02-17 20:42:00,
2013-02-17 15:52:00,37.0,7.0,-100.00,NW,310,4.0,12.0,28,0.00,,,0.00,564.000000,,2013-02-17 20:52:00,
2013-02-17 16:42:00,38.0,8.0,-100.00,NNW,327,2.0,10.0,28,0.00,,,0.00,436.000000,,2013-02-17 21:42:00,
2013-02-17 16:53:00,38.0,8.0,-100.00,NNW,327,2.0,10.0,28,0.00,,,0.00,436.000000,,2013-02-17 21:53:00,
2013-02-17 17:01:00,38.0,8.0,-100.00,NNW,327,2.0,10.0,28,0.00,,,0.00,436.000000,,2013-02-17 22:01:00,
2013-02-17 17:32:00,39.0,9.0,-100.00,West,263,3.0,8.0,28,0.00,,,0.00,246.000000,,2013-02-17 22:32:00,
2013-02-17 17:42:00,39.0,9.0,-100.00,West,263,3.0,8.0,28,0.00,,,0.00,246.000000,,2013-02-17 22:42:00,
2013-02-17 17:52:00,39.0,9.0,-100.00,West,263,3.0,8.0,28,0.00,,,0.00,246.000000,,2013-02-17 22:52:00,
2013-02-17 18:02:00,39.0,9.0,-100.00,West,263,3.0,8.0,28,0.00,,,0.00,246.000000,,2013-02-17 23:02:00,
2013-02-17 18:42:00,33.0,9.0,-100.00,WNW,282,0.0,9.0,36,0.00,,,0.00,69.000000,,2013-02-17 23:42:00,
2013-02-17 18:52:00,33.0,9.0,-100.00,WNW,282,0.0,9.0,36,0.00,,,0.00,69.000000,,2013-02-17 23:52:00,
2013-02-17 19:01:00,33.0,9.0,-100.00,WNW,282,0.0,9.0,36,0.00,,,0.00,69.000000,,2013-02-18 00:01:00,
2013-02-17 19:42:00,31.0,10.0,-100.00,South,177,0.0,1.0,40,0.00,,,0.00,5.000000,,2013-02-18 00:42:00,
2013-02-17 19:52:00,31.0,10.0,-100.00,South,177,0.0,1.0,40,0.00,,,0.00,5.000000,,2013-02-18 00:52:00,
2013-02-17 20:01:00,31.0,10.0,-100.00,South,177,0.0,1.0,40,0.00,,,0.00,5.000000,,2013-02-18 01:01:00,
2013-02-17 21:42:00,29.0,9.0,-100.00,SE,130,1.0,4.0,43,-99.99,,,0.00,0.000000,,2013-02-18 02:42:00,
2013-02-17 21:52:00,29.0,9.0,-100.00,SE,130,1.0,4.0,43,-99.99,,,0.00,0.000000,,2013-02-18 02:52:00,
2013-02-17 22:01:00,29.0,9.0,-100.00,SE,130,1.0,4.0,43,-99.99,,,0.00,0.000000,,2013-02-18 03:01:00,
2013-02-17 22:32:00,29.0,9.0,-100.00,South,169,2.0,6.0,43,0.00,,,0.00,0.000000,,2013-02-18 03:32:00,
2013-02-17 22:42:00,29.0,9.0,-100.00,South,169,2.0,6.0,43,0.00,,,0.00,0.000000,,2013-02-18 03:42:00,
2013-02-17 22:52:00,29.0,9.0,-100.00,South,169,2.0,6.0,43,0.00,,,0.00,0.000000,,2013-02-18 03:52:00,
2013-02-17 23:01:00,29.0,9.0,-100.00,South,169,2.0,6.0,43,0.00,,,0.00,0.000000,,2013-02-18 04:01:00,
2013-02-17 23:42:00,30.0,10.0,-100.00,SSW,203,3.0,6.0,43,0.00,,,0.00,0.000000,,2013-02-18 04:42:00,
2013-02-17 23:52:00,30.0,10.0,-100.00,SSW,203,3.0,6.0,43,0.00,,,0.00,0.000000,,2013-02-18 04:52:00,